Time;durP1;ratioP1;P1;durP2;ratioP2;P2;SDS_P1;SDS_P2;PMS_P1;PMS_P2;Temp;Humidity;BMP_temperature;BMP_pressure;BME280_temperature;BME280_humidity;BME280_pressure;Samples;Min_cycle;Max_cycle;Signal;HPM_P1;HPM_P2
2022/08/10 00:00:20;;;;;;;3.10;2.25;;;30.40;31.60;;;;;;6009548;29;20152;-71
2022/08/10 00:03:21;;;;;;;3.85;2.70;;;30.40;31.80;;;;;;6009455;29;20483;-69
2022/08/10 00:06:22;;;;;;;5.25;2.38;;;30.30;31.90;;;;;;6008723;29;20053;-71
2022/08/10 00:09:23;;;;;;;5.07;2.67;;;30.30;32.10;;;;;;6016224;29;20037;-72
2022/08/10 00:12:24;;;;;;;5.82;2.25;;;30.30;32.30;;;;;;6008979;29;20052;-71
2022/08/10 00:15:25;;;;;;;2.88;2.35;;;30.30;32.30;;;;;;6011012;29;20041;-71
2022/08/10 00:18:26;;;;;;;3.97;2.20;;;30.20;32.30;;;;;;6011388;29;20102;-71
2022/08/10 00:21:26;;;;;;;2.97;2.33;;;30.20;32.30;;;;;;6008507;29;20318;-71
2022/08/10 00:24:27;;;;;;;7.07;2.45;;;30.10;32.50;;;;;;6007219;29;20056;-71
2022/08/10 00:27:30;;;;;;;5.82;2.10;;;30.00;32.60;;;;;;6009302;29;20178;-71
2022/08/10 00:30:31;;;;;;;2.28;2.00;;;29.80;32.60;;;;;;6007500;29;20038;-71
2022/08/10 00:33:32;;;;;;;3.00;2.50;;;29.70;32.70;;;;;;6008719;29;20372;-71
2022/08/10 00:36:33;;;;;;;4.20;2.75;;;29.70;32.90;;;;;;6009025;29;20058;-70
2022/08/10 00:39:34;;;;;;;5.68;2.70;;;29.60;33.40;;;;;;6022630;29;20103;-69
2022/08/10 00:42:35;;;;;;;3.25;2.85;;;29.50;33.90;;;;;;6028601;29;20038;-70
2022/08/10 00:45:36;;;;;;;6.28;2.90;;;29.50;34.20;;;;;;6007830;29;20368;-70
2022/08/10 00:48:36;;;;;;;9.88;3.47;;;29.40;34.20;;;;;;6009723;29;20131;-70
2022/08/10 00:51:37;;;;;;;3.45;2.97;;;29.40;34.20;;;;;;6008720;29;20054;-70
2022/08/10 00:54:40;;;;;;;3.90;3.20;;;29.40;34.20;;;;;;6010684;29;20045;-69
2022/08/10 00:57:41;;;;;;;7.07;3.25;;;29.40;34.10;;;;;;6008544;29;20078;-70
2022/08/10 01:00:42;;;;;;;5.88;2.65;;;29.30;34.00;;;;;;6007587;29;20045;-72
2022/08/10 01:03:43;;;;;;;3.42;2.53;;;29.30;34.00;;;;;;6007490;29;20105;-70
2022/08/10 01:06:54;;;;;;;3.75;2.47;;;29.20;34.00;;;;;;6008605;29;20042;-70
2022/08/10 01:09:55;;;;;;;3.45;2.25;;;29.10;34.20;;;;;;6005478;29;20038;-70
2022/08/10 01:13:23;;;;;;;3.15;2.58;;;29.10;34.20;;;;;;6006808;29;20250;-70
2022/08/10 01:16:37;;;;;;;4.38;2.30;;;29.00;34.40;;;;;;6007409;29;20061;-70
2022/08/10 01:19:57;;;;;;;3.00;2.40;;;29.00;34.40;;;;;;6006854;29;20034;-70
2022/08/10 01:23:22;;;;;;;7.85;2.55;;;28.90;34.60;;;;;;6008722;29;20065;-70
2022/08/10 01:26:57;;;;;;;3.00;2.25;;;28.80;34.80;;;;;;6004291;29;20034;-70
2022/08/10 01:30:11;;;;;;;4.18;2.35;;;28.70;35.10;;;;;;6019898;29;20071;-70
2022/08/10 01:33:23;;;;;;;6.95;2.22;;;28.60;35.00;;;;;;6020979;29;20511;-70
2022/08/10 01:36:30;;;;;;;3.42;2.33;;;28.70;35.30;;;;;;6006434;29;20057;-70
2022/08/10 01:39:38;;;;;;;3.83;2.47;;;28.60;35.60;;;;;;6006389;29;20038;-70
2022/08/10 01:42:41;;;;;;;3.65;2.50;;;28.50;35.80;;;;;;6018975;29;20046;-70
2022/08/10 01:45:47;;;;;;;2.53;2.17;;;28.50;35.80;;;;;;6006771;29;20361;-70
2022/08/10 01:48:50;;;;;;;3.50;2.60;;;28.50;35.90;;;;;;6006937;29;20038;-70
2022/08/10 01:51:57;;;;;;;11.82;2.58;;;28.50;35.90;;;;;;6007758;29;20034;-71
2022/08/10 01:54:58;;;;;;;5.18;2.40;;;28.40;35.90;;;;;;6019286;29;20472;-70
2022/08/10 01:58:03;;;;;;;4.68;2.60;;;28.40;36.00;;;;;;5989295;29;20118;-70
2022/08/10 02:01:06;;;;;;;6.03;2.50;;;28.40;36.20;;;;;;6007967;29;20049;-70
2022/08/10 02:04:21;;;;;;;4.15;2.60;;;28.40;36.20;;;;;;6007540;29;20464;-70
2022/08/10 02:07:26;;;;;;;4.82;2.70;;;28.30;36.30;;;;;;6006016;29;20057;-70
2022/08/10 02:10:28;;;;;;;5.35;2.45;;;28.30;36.40;;;;;;6006251;29;20042;-70
2022/08/10 02:13:31;;;;;;;6.07;2.60;;;28.30;36.50;;;;;;6005662;29;20053;-70
2022/08/10 02:16:33;;;;;;;4.30;2.22;;;28.30;36.40;;;;;;5991626;29;20038;-70
2022/08/10 02:19:37;;;;;;;3.25;2.50;;;28.20;36.30;;;;;;6006325;29;20050;-70
2022/08/10 02:22:41;;;;;;;9.15;2.90;;;28.20;36.30;;;;;;5991948;29;20488;-70
2022/08/10 02:25:43;;;;;;;6.60;2.60;;;28.30;36.20;;;;;;6008601;29;20131;-70
2022/08/10 02:28:45;;;;;;;3.25;2.35;;;28.30;36.20;;;;;;6006747;29;20045;-70
2022/08/10 02:31:46;;;;;;;4.45;2.45;;;28.20;36.20;;;;;;6007682;29;20057;-70
2022/08/10 02:34:49;;;;;;;3.63;2.92;;;28.20;36.20;;;;;;6008434;29;20054;-70
2022/08/10 02:37:54;;;;;;;4.90;2.30;;;28.20;36.30;;;;;;6013063;29;20106;-70
2022/08/10 02:40:58;;;;;;;3.70;2.50;;;28.10;36.40;;;;;;6014070;29;20058;-70
2022/08/10 02:44:16;;;;;;;4.57;2.20;;;27.90;37.00;;;;;;6011449;29;20038;-70
2022/08/10 02:47:38;;;;;;;5.38;2.50;;;28.00;36.70;;;;;;6011418;29;20408;-70
2022/08/10 02:50:42;;;;;;;2.72;2.40;;;27.90;36.80;;;;;;6013675;29;20076;-71
2022/08/10 02:53:52;;;;;;;3.65;2.40;;;27.90;36.90;;;;;;6011796;29;20045;-71
2022/08/10 02:57:16;;;;;;;5.80;2.45;;;27.80;37.10;;;;;;5994955;29;20065;-70
2022/08/10 03:00:17;;;;;;;3.03;2.30;;;27.60;37.30;;;;;;6009652;29;20128;-70
2022/08/10 03:03:23;;;;;;;4.30;2.60;;;27.70;37.40;;;;;;5993324;29;20056;-70
2022/08/10 03:06:34;;;;;;;4.68;2.22;;;27.70;37.50;;;;;;6012143;29;20482;-70
2022/08/10 03:09:38;;;;;;;6.60;4.53;;;27.60;37.50;;;;;;5995186;29;20038;-70
2022/08/10 03:12:41;;;;;;;3.72;2.72;;;27.60;37.50;;;;;;6012085;29;20065;-71
2022/08/10 03:15:44;;;;;;;2.97;2.50;;;27.60;37.50;;;;;;5995715;29;20045;-70
2022/08/10 03:18:46;;;;;;;4.50;2.88;;;27.60;37.60;;;;;;6011362;29;20491;-70
2022/08/10 03:21:48;;;;;;;10.57;2.67;;;27.50;37.60;;;;;;6009428;29;20045;-70
2022/08/10 03:24:52;;;;;;;5.90;2.50;;;27.50;37.80;;;;;;5995684;29;20076;-71
2022/08/10 03:27:54;;;;;;;6.28;2.65;;;27.50;38.10;;;;;;6011538;29;20174;-70
2022/08/10 03:30:57;;;;;;;4.20;2.95;;;27.40;38.20;;;;;;6014180;29;20046;-70
2022/08/10 03:34:01;;;;;;;6.82;2.75;;;27.40;38.20;;;;;;6011293;29;20079;-70
2022/08/10 03:37:02;;;;;;;3.22;2.33;;;27.40;38.30;;;;;;6010826;29;20049;-70
2022/08/10 03:40:05;;;;;;;4.88;2.30;;;27.40;38.40;;;;;;5995059;29;20046;-70
2022/08/10 03:43:07;;;;;;;5.90;2.78;;;27.30;38.40;;;;;;6007503;29;20046;-70
2022/08/10 03:46:09;;;;;;;3.13;2.40;;;27.30;38.50;;;;;;6011635;29;20204;-71
2022/08/10 03:49:12;;;;;;;3.53;2.78;;;27.30;38.60;;;;;;6010141;29;20046;-70
2022/08/10 03:52:17;;;;;;;4.50;2.72;;;27.30;38.70;;;;;;6012236;29;20040;-71
2022/08/10 03:55:18;;;;;;;5.45;2.75;;;27.20;38.80;;;;;;6008587;29;20049;-70
2022/08/10 03:58:19;;;;;;;3.67;2.70;;;27.20;39.40;;;;;;6019330;29;20124;-70
2022/08/10 04:01:21;;;;;;;3.92;2.65;;;27.20;38.80;;;;;;6011378;29;20034;-70
2022/08/10 04:04:23;;;;;;;12.13;2.65;;;27.20;38.60;;;;;;6017645;29;20040;-71
2022/08/10 04:07:24;;;;;;;3.63;2.13;;;27.20;38.50;;;;;;6011009;29;20409;-71
2022/08/10 04:10:25;;;;;;;6.18;1.92;;;27.20;38.30;;;;;;6011042;29;20037;-70
2022/08/10 04:13:26;;;;;;;2.40;1.80;;;27.30;38.10;;;;;;6011167;29;20058;-70
2022/08/10 04:16:27;;;;;;;3.53;2.17;;;27.30;37.80;;;;;;6010004;29;20056;-70
2022/08/10 04:19:40;;;;;;;3.72;2.80;;;27.20;37.70;;;;;;6011173;29;20046;-70
2022/08/10 04:22:43;;;;;;;3.17;2.83;;;27.20;37.90;;;;;;6010492;29;20038;-70
2022/08/10 04:25:44;;;;;;;4.65;2.95;;;27.10;38.10;;;;;;6011157;29;20038;-70
2022/08/10 04:28:47;;;;;;;7.07;3.03;;;27.10;38.50;;;;;;6012157;29;20111;-70
2022/08/10 04:31:51;;;;;;;4.43;2.72;;;27.00;38.70;;;;;;6012237;29;20441;-70
2022/08/10 04:34:55;;;;;;;13.75;3.20;;;27.00;38.90;;;;;;6009228;29;20102;-70
2022/08/10 04:38:01;;;;;;;5.10;2.88;;;26.90;39.00;;;;;;5995422;29;20041;-70
2022/08/10 04:41:03;;;;;;;2.75;2.08;;;26.90;39.00;;;;;;6011566;29;20038;-70
2022/08/10 04:44:04;;;;;;;3.60;2.05;;;26.90;38.70;;;;;;6010965;29;20341;-70
2022/08/10 04:47:05;;;;;;;8.20;2.30;;;26.90;38.60;;;;;;5994213;29;20090;-71
2022/08/10 04:50:06;;;;;;;5.93;2.85;;;26.90;38.60;;;;;;5994723;29;20044;-70
2022/08/10 04:53:07;;;;;;;7.75;2.20;;;26.90;38.60;;;;;;5996874;29;20034;-70
2022/08/10 04:56:08;;;;;;;3.22;2.25;;;26.90;38.70;;;;;;5994143;29;20118;-70
2022/08/10 04:59:10;;;;;;;5.28;2.17;;;26.80;38.60;;;;;;5994223;29;20038;-70
2022/08/10 05:02:11;;;;;;;4.68;2.53;;;26.80;38.60;;;;;;6009550;29;20049;-70
2022/08/10 05:05:12;;;;;;;2.70;2.40;;;26.80;39.20;;;;;;5999508;29;20106;-70
2022/08/10 05:08:13;;;;;;;2.67;2.10;;;26.80;38.60;;;;;;6003993;29;20065;-71
2022/08/10 05:11:14;;;;;;;5.88;2.65;;;26.80;38.60;;;;;;5997878;29;20420;-70
2022/08/10 05:14:15;;;;;;;4.05;2.40;;;26.80;38.70;;;;;;5993489;29;20042;-70
2022/08/10 05:17:16;;;;;;;13.27;2.47;;;26.80;39.40;;;;;;5979565;29;20548;-70
2022/08/10 05:20:17;;;;;;;9.68;2.38;;;26.80;38.80;;;;;;5994788;29;20062;-71
2022/08/10 05:23:18;;;;;;;5.43;2.70;;;26.80;38.90;;;;;;5994687;29;20117;-70
2022/08/10 05:26:19;;;;;;;6.68;2.45;;;26.80;39.00;;;;;;6012584;29;20030;-70
2022/08/10 05:29:19;;;;;;;30.25;4.18;;;26.70;39.10;;;;;;5994261;29;21526;-70
2022/08/10 05:32:20;;;;;;;3.45;2.40;;;26.70;39.20;;;;;;5991831;29;20070;-70
2022/08/10 05:35:22;;;;;;;5.88;2.65;;;26.80;39.20;;;;;;5994164;29;20471;-70
2022/08/10 05:38:25;;;;;;;4.63;2.35;;;26.80;39.10;;;;;;5994516;29;20034;-70
2022/08/10 05:41:28;;;;;;;4.00;2.40;;;26.80;39.10;;;;;;5994314;29;20042;-73
2022/08/10 05:44:32;;;;;;;5.50;2.22;;;26.80;38.80;;;;;;6014826;29;20376;-71
2022/08/10 05:47:33;;;;;;;6.28;2.35;;;26.90;38.70;;;;;;6007915;29;20034;-71
2022/08/10 05:50:34;;;;;;;7.00;2.20;;;26.90;38.60;;;;;;5994298;29;20041;-70
2022/08/10 05:53:37;;;;;;;4.13;2.33;;;26.90;38.50;;;;;;5978761;29;20057;-72
2022/08/10 05:56:38;;;;;;;6.15;1.95;;;26.90;38.30;;;;;;6008420;29;20381;-70
2022/08/10 05:59:46;;;;;;;2.30;2.10;;;26.90;38.20;;;;;;5993124;29;20045;-70
2022/08/10 06:02:51;;;;;;;3.50;2.10;;;27.00;38.20;;;;;;6007382;29;20068;-70
2022/08/10 06:05:57;;;;;;;2.10;1.90;;;27.00;38.00;;;;;;6005512;29;20133;-70
2022/08/10 06:08:59;;;;;;;4.90;2.03;;;27.10;38.00;;;;;;5993890;29;20102;-71
2022/08/10 06:12:01;;;;;;;2.35;2.00;;;27.00;37.80;;;;;;6008739;29;20049;-70
2022/08/10 06:15:02;;;;;;;4.75;2.20;;;27.10;37.90;;;;;;5993237;29;20418;-70
2022/08/10 06:18:04;;;;;;;5.47;2.28;;;27.10;37.90;;;;;;5993681;29;20077;-71
2022/08/10 06:21:08;;;;;;;5.72;2.03;;;27.10;37.60;;;;;;6008938;29;20050;-70
2022/08/10 06:24:10;;;;;;;2.72;1.73;;;27.00;37.50;;;;;;6009144;29;20049;-71
2022/08/10 06:27:12;;;;;;;6.60;2.03;;;27.00;37.70;;;;;;6009734;29;20034;-70
2022/08/10 06:30:14;;;;;;;4.47;2.13;;;27.00;37.80;;;;;;5993317;29;20041;-70
2022/08/10 06:33:17;;;;;;;2.30;1.70;;;27.00;37.90;;;;;;6008928;29;20034;-70
2022/08/10 06:36:21;;;;;;;2.78;2.08;;;27.00;37.90;;;;;;6008526;29;20102;-70
2022/08/10 06:39:23;;;;;;;3.72;1.90;;;27.00;38.00;;;;;;5994172;29;20030;-70
2022/08/10 06:42:36;;;;;;;3.08;2.10;;;27.00;38.10;;;;;;6009167;29;20118;-70
2022/08/10 06:46:05;;;;;;;11.45;2.45;;;27.00;38.10;;;;;;5975479;29;20118;-69
2022/08/10 06:49:09;;;;;;;2.08;1.92;;;27.00;38.10;;;;;;5975211;29;20038;-71
2022/08/10 06:52:11;;;;;;;3.63;2.00;;;27.10;37.90;;;;;;6001665;29;20463;-69
2022/08/10 06:55:14;;;;;;;7.40;2.15;;;27.10;37.80;;;;;;5995416;29;20062;-71
2022/08/10 06:58:19;;;;;;;13.75;2.30;;;27.20;37.80;;;;;;5973578;29;20128;-70
2022/08/10 07:01:24;;;;;;;5.88;1.80;;;27.30;37.60;;;;;;5989022;29;20175;-70
2022/08/10 07:04:42;;;;;;;7.70;1.75;;;27.40;37.50;;;;;;5987910;29;20046;-71
2022/08/10 07:07:44;;;;;;;7.55;2.25;;;27.50;37.30;;;;;;6002459;29;20424;-71
2022/08/10 07:10:47;;;;;;;4.05;2.22;;;27.60;37.00;;;;;;5988440;29;20191;-71
2022/08/10 07:13:49;;;;;;;5.88;2.20;;;27.70;36.80;;;;;;5988429;29;20132;-70
2022/08/10 07:16:50;;;;;;;9.20;1.98;;;27.80;36.70;;;;;;6004020;29;20472;-70
2022/08/10 07:19:54;;;;;;;5.50;1.90;;;27.90;36.50;;;;;;6004835;29;20050;-70
2022/08/10 07:22:57;;;;;;;2.85;1.60;;;28.00;36.20;;;;;;6008244;29;20145;-71
2022/08/10 07:25:59;;;;;;;20.77;2.63;;;28.20;36.00;;;;;;5990841;29;20065;-71
2022/08/10 07:29:01;;;;;;;5.15;2.10;;;28.20;35.70;;;;;;6007639;29;20113;-71
2022/08/10 07:32:04;;;;;;;4.65;1.77;;;28.30;35.60;;;;;;6009056;29;20026;-71
2022/08/10 07:35:07;;;;;;;3.58;1.77;;;28.50;35.60;;;;;;5993322;29;20044;-71
2022/08/10 07:38:14;;;;;;;2.03;1.67;;;28.60;35.50;;;;;;5993364;29;20050;-71
2022/08/10 07:41:16;;;;;;;5.72;2.13;;;28.70;35.30;;;;;;6008678;29;20050;-71
2022/08/10 07:44:21;;;;;;;4.15;1.90;;;28.90;35.20;;;;;;6010175;29;20045;-70
2022/08/10 07:47:28;;;;;;;2.88;1.90;;;29.00;35.10;;;;;;6010204;29;20124;-70
2022/08/10 07:50:30;;;;;;;7.80;2.22;;;29.20;35.00;;;;;;5993013;29;20049;-70
2022/08/10 07:53:41;;;;;;;4.30;1.70;;;29.30;34.80;;;;;;5993046;29;20060;-73
2022/08/10 07:56:46;;;;;;;9.02;1.90;;;29.40;34.60;;;;;;6007778;29;20053;-70
2022/08/10 07:59:53;;;;;;;4.60;1.83;;;29.40;35.10;;;;;;5999328;29;20092;-71
2022/08/10 08:02:56;;;;;;;3.80;1.73;;;29.40;34.20;;;;;;5991863;29;20034;-71
2022/08/10 08:05:59;;;;;;;12.88;2.05;;;29.50;34.20;;;;;;5990158;29;20137;-70
2022/08/10 08:09:02;;;;;;;5.03;2.05;;;29.60;34.10;;;;;;5994037;29;20044;-71
2022/08/10 08:12:05;;;;;;;10.90;2.50;;;29.70;33.90;;;;;;6009471;29;20082;-70
2022/08/10 08:15:11;;;;;;;4.78;1.80;;;29.90;33.70;;;;;;5993120;29;20560;-70
2022/08/10 08:18:13;;;;;;;5.55;2.03;;;30.00;33.50;;;;;;5986552;29;20140;-70
2022/08/10 08:21:14;;;;;;;8.90;1.67;;;30.20;33.30;;;;;;6013892;29;20098;-72
2022/08/10 08:24:16;;;;;;;5.47;2.03;;;30.40;33.10;;;;;;5992758;29;20062;-71
2022/08/10 08:27:21;;;;;;;7.43;1.70;;;30.50;32.70;;;;;;6009169;29;20061;-71
2022/08/10 08:30:25;;;;;;;3.10;1.52;;;30.50;32.50;;;;;;5992716;29;20066;-71
2022/08/10 08:33:28;;;;;;;6.65;2.03;;;30.60;32.30;;;;;;5998425;29;20120;-71
2022/08/10 08:36:32;;;;;;;4.28;1.63;;;30.70;32.10;;;;;;6010569;29;20049;-71
2022/08/10 08:39:35;;;;;;;1.95;1.33;;;30.80;31.80;;;;;;6009313;29;20421;-71
2022/08/10 08:43:04;;;;;;;4.55;2.22;;;30.90;31.50;;;;;;6009665;29;20049;-71
2022/08/10 08:46:32;;;;;;;11.88;3.00;;;31.00;31.20;;;;;;5992439;29;20041;-71
2022/08/10 08:49:45;;;;;;;3.15;1.65;;;31.10;31.10;;;;;;6008407;29;20042;-71
2022/08/10 08:53:12;;;;;;;5.90;2.78;;;31.20;30.80;;;;;;6006134;29;20045;-71
2022/08/10 08:56:28;;;;;;;8.52;1.50;;;31.30;30.20;;;;;;5877902;30;20064;-72
2022/08/10 08:59:50;;;;;;;13.65;3.33;;;31.30;30.20;;;;;;5878284;30;20044;-72
2022/08/10 09:03:17;;;;;;;8.43;4.65;;;31.40;30.40;;;;;;5877252;30;20075;-72
2022/08/10 09:06:35;;;;;;;3.67;2.15;;;31.50;30.50;;;;;;5846141;30;20055;-71
2022/08/10 09:09:49;;;;;;;5.60;1.92;;;31.60;30.30;;;;;;5880602;30;20051;-71
2022/08/10 09:13:08;;;;;;;7.80;3.13;;;31.80;30.10;;;;;;5880250;30;20047;-71
2022/08/10 09:16:42;;;;;;;7.43;3.60;;;31.90;30.10;;;;;;5863589;30;20606;-71
2022/08/10 09:20:09;;;;;;;13.05;2.80;;;31.90;30.00;;;;;;5856193;30;20167;-71
2022/08/10 09:23:35;;;;;;;5.93;2.10;;;32.00;30.10;;;;;;5879851;30;20045;-71
2022/08/10 09:26:42;;;;;;;8.07;3.55;;;32.10;30.00;;;;;;5862103;30;20051;-72
2022/08/10 09:29:56;;;;;;;5.30;2.90;;;32.10;29.80;;;;;;5850801;30;20080;-70
2022/08/10 09:33:06;;;;;;;8.63;2.83;;;32.30;29.50;;;;;;5936671;29;20448;-70
2022/08/10 09:36:33;;;;;;;4.45;1.98;;;32.20;29.60;;;;;;5990149;29;20448;-71
2022/08/10 09:39:53;;;;;;;2.40;1.75;;;32.20;29.80;;;;;;6004791;29;20038;-72
2022/08/10 09:43:26;;;;;;;11.65;4.45;;;32.30;29.80;;;;;;5998717;29;20064;-71
2022/08/10 09:46:41;;;;;;;8.00;3.17;;;32.40;30.20;;;;;;5973116;29;20065;-71
2022/08/10 09:50:05;;;;;;;6.43;1.90;;;32.50;29.60;;;;;;6000252;29;20485;-72
2022/08/10 09:53:40;;;;;;;7.22;2.30;;;32.50;29.60;;;;;;5988334;29;20042;-70
2022/08/10 09:57:00;;;;;;;4.00;1.88;;;32.60;29.60;;;;;;6002165;29;20087;-71
2022/08/10 10:00:07;;;;;;;4.30;1.98;;;32.70;29.60;;;;;;5986247;29;20088;-71
2022/08/10 10:03:23;;;;;;;12.23;2.05;;;32.70;29.60;;;;;;6004029;29;20037;-71
2022/08/10 10:06:47;;;;;;;4.45;1.90;;;32.80;29.50;;;;;;5987316;29;20476;-70
2022/08/10 10:09:59;;;;;;;4.43;1.70;;;32.90;29.40;;;;;;5919641;29;20058;-71
2022/08/10 10:13:11;;;;;;;4.72;1.75;;;32.90;29.30;;;;;;5935425;29;20051;-71
2022/08/10 10:16:32;;;;;;;5.03;1.83;;;33.00;29.30;;;;;;5935883;29;20047;-71
2022/08/10 10:19:38;;;;;;;7.72;2.35;;;33.00;29.20;;;;;;5935467;29;20425;-72
2022/08/10 10:22:56;;;;;;;3.67;1.73;;;33.00;28.90;;;;;;5935572;29;20070;-72
2022/08/10 10:26:21;;;;;;;6.70;2.10;;;33.00;28.90;;;;;;5919375;29;20046;-71
2022/08/10 10:29:46;;;;;;;2.47;1.88;;;33.10;28.90;;;;;;5919909;29;20043;-70
2022/08/10 10:32:57;;;;;;;7.15;1.95;;;33.20;28.70;;;;;;5935290;29;20048;-71
2022/08/10 10:36:00;;;;;;;2.75;2.00;;;33.20;28.40;;;;;;5934300;29;20106;-71
2022/08/10 10:39:03;;;;;;;7.43;2.00;;;33.40;28.00;;;;;;5921295;29;20493;-72
2022/08/10 10:43:19;;;;;;;5.00;1.83;;;33.40;28.00;;;;;;5946187;29;20138;-71
2022/08/10 10:46:43;;;;;;;3.67;2.08;;;33.40;27.90;;;;;;5955304;29;20040;-71
2022/08/10 10:49:54;;;;;;;2.75;1.90;;;33.50;27.70;;;;;;6005234;29;20073;-71
2022/08/10 10:53:34;;;;;;;3.22;1.70;;;33.60;27.30;;;;;;6019274;29;20171;-72
2022/08/10 10:56:41;;;;;;;2.45;1.90;;;33.70;27.00;;;;;;5998175;29;20128;-72
2022/08/10 10:59:54;;;;;;;3.10;2.13;;;33.90;26.70;;;;;;6023031;29;20467;-72
2022/08/10 11:03:39;;;;;;;5.65;1.90;;;34.40;26.30;;;;;;6008244;29;20140;-72
2022/08/10 11:07:10;;;;;;;3.15;2.08;;;35.00;25.90;;;;;;6003097;29;20046;-70
2022/08/10 11:10:21;;;;;;;5.47;2.00;;;35.80;25.20;;;;;;6022006;29;20049;-72
2022/08/10 11:13:43;;;;;;;2.47;1.80;;;36.30;24.50;;;;;;6009198;29;20046;-72
2022/08/10 11:16:57;;;;;;;2.65;1.80;;;36.70;24.30;;;;;;6008719;29;20116;-72
2022/08/10 11:20:20;;;;;;;4.72;2.08;;;37.10;24.00;;;;;;6007647;29;20057;-72
2022/08/10 11:23:32;;;;;;;5.15;2.00;;;37.50;23.80;;;;;;6008869;29;20050;-72
2022/08/10 11:26:43;;;;;;;5.00;2.15;;;37.80;23.50;;;;;;6007435;29;20478;-72
2022/08/10 11:30:04;;;;;;;3.92;2.03;;;38.10;23.20;;;;;;6008244;29;20046;-72
2022/08/10 11:33:14;;;;;;;2.83;1.88;;;38.30;23.00;;;;;;5991686;29;20041;-72
2022/08/10 11:36:26;;;;;;;2.30;1.92;;;38.60;22.70;;;;;;6023318;29;20081;-71
2022/08/10 11:39:49;;;;;;;6.45;1.77;;;38.80;22.30;;;;;;6017979;29;20490;-72
2022/08/10 11:43:24;;;;;;;6.68;1.63;;;39.00;21.90;;;;;;6020142;29;20054;-72
2022/08/10 11:46:30;;;;;;;3.70;1.95;;;39.00;21.70;;;;;;6007620;29;20045;-72
2022/08/10 11:49:48;;;;;;;5.07;1.85;;;39.10;21.50;;;;;;6009324;29;20105;-71
2022/08/10 11:53:00;;;;;;;7.43;1.90;;;39.20;21.30;;;;;;6005913;29;20045;-71
2022/08/10 11:56:05;;;;;;;5.82;1.70;;;39.20;21.00;;;;;;6006481;29;20389;-72
2022/08/10 12:02:58;;;;;;;10.48;1.65;;;39.20;20.80;;;;;;6006216;29;20038;-71
2022/08/10 12:06:02;;;;;;;2.70;1.75;;;39.30;20.80;;;;;;5902518;29;20246;-71
2022/08/10 12:09:04;;;;;;;1.65;1.55;;;39.40;20.60;;;;;;5913402;29;20047;-71
2022/08/10 12:12:06;;;;;;;3.40;1.85;;;39.60;20.50;;;;;;5915418;29;20031;-71
2022/08/10 12:15:15;;;;;;;7.55;1.90;;;39.80;20.40;;;;;;5914458;29;20078;-71
2022/08/10 12:18:48;;;;;;;4.07;1.80;;;40.00;20.20;;;;;;5929762;29;20050;-72
2022/08/10 12:22:00;;;;;;;6.57;2.20;;;40.10;20.00;;;;;;5915681;29;20193;-71
2022/08/10 12:25:06;;;;;;;10.35;2.75;;;40.20;19.80;;;;;;5900665;29;20051;-71
2022/08/10 12:28:17;;;;;;;2.42;2.13;;;40.30;20.10;;;;;;5932543;29;20123;-71
2022/08/10 12:31:28;;;;;;;7.05;2.22;;;40.40;19.60;;;;;;5917022;29;20055;-72
2022/08/10 12:34:49;;;;;;;3.65;2.30;;;40.60;19.60;;;;;;5929811;29;20040;-72
2022/08/10 12:38:21;;;;;;;7.82;2.78;;;40.70;19.10;;;;;;5930560;29;20067;-72
2022/08/10 12:41:31;;;;;;;6.68;2.72;;;41.00;19.00;;;;;;5927278;29;20055;-72
2022/08/10 12:44:43;;;;;;;3.83;2.38;;;41.30;18.70;;;;;;5943310;29;20042;-71
2022/08/10 12:47:55;;;;;;;4.40;2.78;;;41.50;18.60;;;;;;5960037;29;20390;-72
2022/08/10 12:51:12;;;;;;;4.43;2.70;;;41.70;18.40;;;;;;5943823;29;20101;-71
2022/08/10 12:58:41;;;;;;;3.80;2.80;;;42.40;17.70;;;;;;5983946;29;20042;-71
2022/08/10 13:01:43;;;;;;;;;;;42.70;17.50;;;;;;6010477;29;20038;-72
2022/08/10 13:04:49;;;;;;;7.88;2.50;;;42.90;17.10;;;;;;6009281;29;19983;-71
2022/08/10 13:09:07;;;;;;;4.13;2.53;;;43.10;16.90;;;;;;6007876;29;20480;-72
2022/08/10 13:11:19;;;;;;;5.82;2.60;;;43.40;16.90;;;;;;6006224;29;20050;-72
2022/08/10 13:14:27;;;;;;;8.30;2.20;;;43.80;16.60;;;;;;6006504;29;20038;-71
2022/08/10 13:17:31;;;;;;;5.32;2.40;;;44.10;16.30;;;;;;6018377;29;20126;-72
2022/08/10 13:20:41;;;;;;;3.88;2.47;;;44.40;16.00;;;;;;6007806;29;20121;-71
2022/08/10 13:23:54;;;;;;;3.35;2.60;;;44.50;15.80;;;;;;6008206;29;20114;-72
2022/08/10 13:27:03;;;;;;;4.03;2.67;;;44.90;15.50;;;;;;6005483;29;20038;-73
2022/08/10 13:30:06;;;;;;;3.53;2.35;;;45.20;15.40;;;;;;6006905;29;20038;-73
2022/08/10 13:33:10;;;;;;;3.13;2.25;;;45.40;15.10;;;;;;6007041;29;20098;-72
2022/08/10 13:36:12;;;;;;;3.80;2.20;;;45.80;15.00;;;;;;6021914;29;20053;-72
2022/08/10 13:39:15;;;;;;;5.07;2.15;;;46.10;14.70;;;;;;6022157;29;20034;-71
2022/08/10 13:42:19;;;;;;;6.85;2.08;;;46.30;14.70;;;;;;6008737;29;20122;-72
2022/08/10 13:45:22;;;;;;;3.35;2.10;;;46.40;14.40;;;;;;6008448;29;20117;-73
2022/08/10 13:48:25;;;;;;;2.03;1.83;;;46.60;14.30;;;;;;5991855;29;20401;-71
2022/08/10 13:51:30;;;;;;;2.20;2.00;;;46.70;14.20;;;;;;6008633;29;20037;-71
2022/08/10 13:54:40;;;;;;;2.95;2.28;;;47.00;14.00;;;;;;6008218;29;20053;-71
2022/08/10 13:57:52;;;;;;;3.97;2.13;;;47.40;14.00;;;;;;5991700;29;20050;-72
2022/08/10 14:00:54;;;;;;;2.50;2.10;;;47.70;13.90;;;;;;5993268;29;20042;-73
2022/08/10 14:03:57;;;;;;;4.45;2.10;;;47.90;13.70;;;;;;6007296;29;20175;-72
2022/08/10 14:07:00;;;;;;;2.90;2.05;;;47.90;13.80;;;;;;6007675;29;20061;-72
2022/08/10 14:10:07;;;;;;;4.85;2.30;;;47.90;13.60;;;;;;6008871;29;20045;-72
2022/08/10 14:13:11;;;;;;;2.08;1.52;;;48.20;13.60;;;;;;5993473;29;20042;-72
2022/08/10 14:16:14;;;;;;;3.30;2.38;;;48.20;13.40;;;;;;6009361;29;20094;-72
2022/08/10 14:19:22;;;;;;;4.10;1.80;;;48.20;13.10;;;;;;6007374;29;20041;-73
2022/08/10 14:22:23;;;;;;;7.95;2.30;;;48.10;13.40;;;;;;5992574;29;20041;-72
2022/08/10 14:25:24;;;;;;;3.83;2.67;;;48.20;13.30;;;;;;5992820;29;20070;-72
2022/08/10 14:28:32;;;;;;;3.45;2.20;;;48.20;13.50;;;;;;5996074;29;20038;-72
2022/08/10 14:31:36;;;;;;;4.68;2.63;;;48.20;13.30;;;;;;6009464;29;20417;-73
2022/08/10 14:34:39;;;;;;;7.97;2.30;;;48.10;13.20;;;;;;6013483;29;20118;-73
2022/08/10 14:37:58;;;;;;;5.72;2.70;;;48.00;13.20;;;;;;6010520;29;20057;-72
2022/08/10 14:41:01;;;;;;;3.08;2.70;;;48.00;13.20;;;;;;6012090;29;20417;-73
2022/08/10 14:44:08;;;;;;;2.75;2.17;;;47.70;13.40;;;;;;6012563;29;20042;-72
2022/08/10 14:47:10;;;;;;;2.80;2.33;;;46.80;13.90;;;;;;5998192;29;20090;-72
2022/08/10 14:50:16;;;;;;;4.43;2.00;;;45.60;14.50;;;;;;5995970;29;20053;-72
2022/08/10 14:53:21;;;;;;;3.80;3.10;;;44.30;15.10;;;;;;6012202;29;20480;-72
2022/08/10 14:56:26;;;;;;;4.43;2.28;;;43.30;15.70;;;;;;5996533;29;20623;-72
2022/08/10 14:59:28;;;;;;;10.55;3.17;;;42.40;16.10;;;;;;6012033;29;20049;-71
2022/08/10 15:02:38;;;;;;;4.30;2.60;;;41.70;16.50;;;;;;5993949;29;20376;-72
2022/08/10 15:05:39;;;;;;;5.70;3.20;;;41.00;17.10;;;;;;6011271;29;20175;-72
2022/08/10 15:08:43;;;;;;;3.30;2.85;;;40.50;17.50;;;;;;6008576;29;20153;-71
2022/08/10 15:11:46;;;;;;;6.95;3.05;;;39.90;18.10;;;;;;6013955;29;20086;-72
2022/08/10 15:14:48;;;;;;;4.05;2.70;;;39.60;18.30;;;;;;6011920;29;20129;-72
2022/08/10 15:17:52;;;;;;;4.60;2.97;;;39.20;18.70;;;;;;6011181;29;20154;-72
2022/08/10 15:20:57;;;;;;;9.88;3.47;;;38.90;18.60;;;;;;6011512;29;20471;-71
2022/08/10 15:24:01;;;;;;;6.70;2.50;;;38.70;18.90;;;;;;6013598;29;20050;-71
2022/08/10 15:27:07;;;;;;;6.45;3.42;;;38.50;18.90;;;;;;6009816;29;20439;-72
2022/08/10 15:30:10;;;;;;;3.05;2.30;;;38.40;19.10;;;;;;6008662;29;20038;-73
2022/08/10 15:40:31;;;;;;;6.63;3.13;;;38.90;18.80;;;;;;6008663;29;20118;-72
2022/08/10 15:43:33;;;;;;;4.18;2.95;;;40.60;17.50;;;;;;6006284;29;20049;-73
2022/08/10 15:46:48;;;;;;;6.40;3.30;;;42.00;16.70;;;;;;6016745;29;20501;-72
2022/08/10 15:50:01;;;;;;;5.80;2.65;;;43.30;16.10;;;;;;6009135;29;20030;-72
2022/08/10 15:53:12;;;;;;;6.13;3.33;;;44.30;15.20;;;;;;5999176;29;20034;-72
2022/08/10 15:56:22;;;;;;;4.57;3.60;;;45.00;14.90;;;;;;6007449;29;20034;-73
2022/08/10 15:59:33;;;;;;;5.32;3.58;;;45.40;14.90;;;;;;6008888;29;20069;-71
2022/08/10 16:02:51;;;;;;;9.73;4.05;;;45.80;14.70;;;;;;6006463;29;20064;-72
2022/08/10 16:05:54;;;;;;;3.97;2.45;;;46.10;14.40;;;;;;6015597;29;20037;-72
2022/08/10 16:09:12;;;;;;;8.35;3.60;;;46.40;14.30;;;;;;6011580;29;20045;-72
2022/08/10 16:12:37;;;;;;;5.93;3.40;;;46.70;14.20;;;;;;6006990;29;20075;-71
2022/08/10 16:15:39;;;;;;;7.05;2.97;;;46.80;14.20;;;;;;6004698;29;20053;-72
2022/08/10 16:18:44;;;;;;;4.30;2.67;;;46.80;14.10;;;;;;6007695;29;20034;-72
2022/08/10 16:21:54;;;;;;;5.70;3.75;;;46.90;13.90;;;;;;6005683;29;20053;-72
2022/08/10 16:24:56;;;;;;;4.70;2.35;;;46.90;13.70;;;;;;6019983;29;20045;-71
2022/08/10 16:28:02;;;;;;;7.85;4.30;;;46.80;13.90;;;;;;6008383;29;20038;-71
2022/08/10 16:31:07;;;;;;;7.75;4.93;;;46.80;13.90;;;;;;6016775;29;20041;-72